createdAt,value
2017-08-19T00:01:47.379Z,7.03
2017-08-19T00:04:16.202Z,7.43
2017-08-19T00:06:44.507Z,6.20
2017-08-19T00:09:12.742Z,5.43
2017-08-19T00:11:41.083Z,5.40
2017-08-19T00:14:09.393Z,6.07
2017-08-19T00:16:37.670Z,6.60
2017-08-19T00:19:05.913Z,5.93
2017-08-19T00:21:35.256Z,7.03
2017-08-19T00:24:03.487Z,7.83
2017-08-19T00:26:31.766Z,6.53
2017-08-19T00:29:00.795Z,6.37
2017-08-19T00:31:29.056Z,6.77
2017-08-19T00:33:57.336Z,6.53
2017-08-19T00:36:25.641Z,6.47
2017-08-19T00:38:53.919Z,5.93
2017-08-19T00:41:22.237Z,5.30
2017-08-19T00:43:51.302Z,5.53
2017-08-19T00:46:19.664Z,5.40
2017-08-19T00:48:47.916Z,8.87
2017-08-19T00:51:16.220Z,5.40
2017-08-19T00:53:44.624Z,6.60
2017-08-19T00:56:12.911Z,5.50
2017-08-19T00:58:41.227Z,5.47
2017-08-19T01:01:10.285Z,6.20
2017-08-19T01:03:38.605Z,5.87
2017-08-19T01:06:07.885Z,5.60
2017-08-19T01:08:36.980Z,5.90
2017-08-19T01:11:05.359Z,6.67
2017-08-19T01:13:34.456Z,6.30
2017-08-19T01:16:03.520Z,5.40
2017-08-19T01:18:31.818Z,5.70
2017-08-19T01:21:00.148Z,6.40
2017-08-19T01:23:28.434Z,5.70
2017-08-19T01:28:57.558Z,5.73
2017-08-19T01:31:25.853Z,6.10
2017-08-19T01:33:54.163Z,6.00
2017-08-19T01:36:22.430Z,5.40
2017-08-19T01:38:50.724Z,5.03
2017-08-19T01:41:18.946Z,5.23
2017-08-19T01:43:47.219Z,5.20
2017-08-19T01:46:15.469Z,5.83
2017-08-19T01:48:43.770Z,5.67
2017-08-19T01:51:12.027Z,5.60
2017-08-19T01:53:40.323Z,6.70
2017-08-19T01:56:08.652Z,6.53
2017-08-19T01:58:37.299Z,6.70
2017-08-19T02:01:05.602Z,6.73
2017-08-19T02:03:33.884Z,7.20
2017-08-19T02:06:02.932Z,6.73
2017-08-19T02:08:31.240Z,6.60
2017-08-19T02:10:59.485Z,6.87
2017-08-19T02:13:27.733Z,7.33
2017-08-19T02:15:56.730Z,7.87
2017-08-19T02:18:25.033Z,7.40
2017-08-19T02:20:53.394Z,8.10
2017-08-19T02:23:21.698Z,8.97
2017-08-19T02:25:49.991Z,8.70
2017-08-19T02:28:18.332Z,8.00
2017-08-19T02:30:46.602Z,8.33
2017-08-19T02:33:14.886Z,9.77
2017-08-19T02:35:43.934Z,10.10
2017-08-19T02:38:12.224Z,9.20
2017-08-19T02:40:40.507Z,9.90
2017-08-19T02:43:08.749Z,9.37
2017-08-19T02:45:36.984Z,8.90
2017-08-19T02:48:05.321Z,10.60
2017-08-19T02:50:33.577Z,9.07
2017-08-19T02:53:01.880Z,11.10
2017-08-19T02:55:30.169Z,9.03
2017-08-19T02:57:58.431Z,9.40
2017-08-19T03:00:26.754Z,8.97
2017-08-19T03:02:54.973Z,7.77
2017-08-19T03:05:23.339Z,8.00
2017-08-19T03:07:51.610Z,7.40
2017-08-19T03:10:19.875Z,9.97
2017-08-19T03:12:48.211Z,7.70
2017-08-19T03:15:17.257Z,8.03
2017-08-19T03:17:45.586Z,8.60
2017-08-19T03:20:13.902Z,7.60
2017-08-19T03:22:42.140Z,8.77
2017-08-19T03:25:10.417Z,10.47
2017-08-19T03:27:38.718Z,9.10
2017-08-19T03:30:06.995Z,7.77
2017-08-19T03:32:36.052Z,7.33
2017-08-19T03:35:04.467Z,8.70
2017-08-19T03:37:32.786Z,8.33
2017-08-19T03:40:01.089Z,7.77
2017-08-19T03:42:29.433Z,8.63
2017-08-19T03:44:57.700Z,8.07
2017-08-19T03:47:25.989Z,7.70
2017-08-19T03:49:54.346Z,7.93
2017-08-19T03:52:23.338Z,7.60
2017-08-19T03:54:51.734Z,7.53
2017-08-19T03:57:20.746Z,7.00
2017-08-19T03:59:49.019Z,8.37
2017-08-19T04:02:18.058Z,6.83
2017-08-19T04:04:46.311Z,6.70
2017-08-19T04:07:14.646Z,6.10
2017-08-19T04:09:43.699Z,5.20
2017-08-19T04:12:12.053Z,6.60
2017-08-19T04:14:40.322Z,6.20
2017-08-19T04:17:08.623Z,6.00
2017-08-19T04:19:36.879Z,5.80
2017-08-19T04:22:06.057Z,5.70
2017-08-19T04:24:35.078Z,5.50
2017-08-19T04:27:03.416Z,5.93
2017-08-19T04:29:32.487Z,5.67
2017-08-19T04:32:00.757Z,6.20
2017-08-19T04:34:29.853Z,5.67
2017-08-19T04:36:58.130Z,4.93
2017-08-19T04:39:26.483Z,5.63
2017-08-19T04:41:54.775Z,5.70
2017-08-19T04:44:23.098Z,4.70
2017-08-19T04:46:52.133Z,5.30
2017-08-19T04:49:20.448Z,5.20
2017-08-19T04:51:48.731Z,5.03
2017-08-19T04:54:17.764Z,4.50
2017-08-19T04:56:46.031Z,4.70
2017-08-19T04:59:14.700Z,4.97
2017-08-19T05:01:42.927Z,5.30
2017-08-19T05:04:11.222Z,4.53
2017-08-19T05:06:39.469Z,4.40
2017-08-19T05:09:07.766Z,4.83
2017-08-19T05:11:36.064Z,4.60
2017-08-19T05:14:04.338Z,5.90
2017-08-19T05:16:32.624Z,4.00
2017-08-19T05:19:00.918Z,4.77
2017-08-19T05:21:29.225Z,4.20
2017-08-19T05:23:57.547Z,5.13
2017-08-19T05:26:25.794Z,4.50
2017-08-19T05:28:54.074Z,4.30
2017-08-19T05:31:22.396Z,6.17
2017-08-19T05:33:50.630Z,4.10
2017-08-19T05:36:18.973Z,3.70
2017-08-19T05:38:47.969Z,4.50
2017-08-19T05:41:16.246Z,4.60
2017-08-19T05:43:45.313Z,4.50
2017-08-19T05:46:13.587Z,3.80
2017-08-19T05:48:41.862Z,3.10
2017-08-19T05:51:10.165Z,4.00
2017-08-19T05:53:39.265Z,3.80
2017-08-19T05:56:07.571Z,3.83
2017-08-19T05:58:35.845Z,4.23
2017-08-19T06:01:04.105Z,3.97
2017-08-19T06:03:32.350Z,3.50
2017-08-19T06:06:00.644Z,2.93
2017-08-19T06:08:28.894Z,3.67
2017-08-19T06:10:57.137Z,3.30
2017-08-19T06:13:25.417Z,3.47
2017-08-19T06:15:53.686Z,3.33
2017-08-19T06:18:21.994Z,3.03
2017-08-19T06:20:50.361Z,3.47
2017-08-19T06:23:18.615Z,2.70
2017-08-19T06:25:46.893Z,3.00
2017-08-19T06:28:15.142Z,4.73
2017-08-19T06:30:44.184Z,3.90
2017-08-19T06:33:12.571Z,2.73
2017-08-19T06:35:40.851Z,3.50
2017-08-19T06:38:09.066Z,2.93
2017-08-19T06:40:38.156Z,4.47
2017-08-19T06:43:06.524Z,2.80
2017-08-19T06:45:34.889Z,5.30
2017-08-19T06:48:03.137Z,3.87
2017-08-19T06:50:31.414Z,3.63
2017-08-19T06:52:59.742Z,3.73
2017-08-19T06:55:27.998Z,2.70
2017-08-19T06:57:56.258Z,3.00
2017-08-19T07:00:24.539Z,4.07
2017-08-19T07:02:53.615Z,2.87
2017-08-19T07:05:21.939Z,2.60
2017-08-19T07:07:50.160Z,3.23
2017-08-19T07:10:18.445Z,4.00
2017-08-19T07:12:46.752Z,2.57
2017-08-19T07:15:14.995Z,3.47
2017-08-19T07:17:43.300Z,3.10
2017-08-19T07:20:11.612Z,2.97
2017-08-19T07:22:39.873Z,3.53
2017-08-19T07:25:08.129Z,3.53
2017-08-19T07:27:36.396Z,3.90
2017-08-19T07:30:04.663Z,2.90
2017-08-19T07:32:32.906Z,4.13
2017-08-19T07:35:01.978Z,3.70
2017-08-19T07:37:30.236Z,3.70
2017-08-19T07:39:58.495Z,3.30
2017-08-19T07:42:26.802Z,2.77
2017-08-19T07:44:55.295Z,4.43
2017-08-19T07:47:23.555Z,2.67
2017-08-19T07:49:51.910Z,3.60
2017-08-19T07:52:20.170Z,3.97
2017-08-19T07:54:49.201Z,2.40
2017-08-19T07:57:17.506Z,2.70
2017-08-19T07:59:45.782Z,2.50
2017-08-19T08:02:14.059Z,3.03
2017-08-19T08:04:42.284Z,2.93
2017-08-19T08:07:10.551Z,3.40
2017-08-19T08:09:39.581Z,3.30
2017-08-19T08:12:07.889Z,3.23
2017-08-19T08:14:36.185Z,2.87
2017-08-19T08:17:04.433Z,3.90
2017-08-19T08:19:32.662Z,3.80
2017-08-19T08:22:00.930Z,3.93
2017-08-19T08:24:29.937Z,2.90
2017-08-19T08:26:58.233Z,3.63
2017-08-19T08:29:26.528Z,2.80
2017-08-19T08:31:54.805Z,3.77
2017-08-19T08:34:23.081Z,6.03
2017-08-19T08:36:51.523Z,3.83
2017-08-19T08:39:19.770Z,4.10
2017-08-19T08:41:49.120Z,3.10
2017-08-19T08:44:17.421Z,4.70
2017-08-19T08:46:45.661Z,3.00
2017-08-19T08:49:13.916Z,2.40
2017-08-19T08:51:42.939Z,4.40
2017-08-19T08:54:11.198Z,3.83
2017-08-19T08:56:39.496Z,2.60
2017-08-19T08:59:07.743Z,3.00
2017-08-19T09:01:36.791Z,3.97
2017-08-19T09:04:05.127Z,2.90
2017-08-19T09:06:33.339Z,3.00
2017-08-19T09:09:01.613Z,3.20
2017-08-19T09:11:29.926Z,2.83
2017-08-19T09:13:58.182Z,3.00
2017-08-19T09:16:26.455Z,3.57
2017-08-19T09:18:54.728Z,3.83
2017-08-19T09:21:23.024Z,3.20
2017-08-19T09:23:51.296Z,3.10
2017-08-19T09:26:19.574Z,4.13
2017-08-19T09:28:47.817Z,4.00
2017-08-19T09:31:16.159Z,3.10
2017-08-19T09:33:44.432Z,3.63
2017-08-19T09:36:12.715Z,4.30
2017-08-19T09:38:41.767Z,4.60
2017-08-19T09:41:10.051Z,3.80
2017-08-19T09:43:38.367Z,3.90
2017-08-19T09:46:06.681Z,4.80
2017-08-19T09:48:35.776Z,4.50
2017-08-19T09:51:04.803Z,3.60
2017-08-19T09:53:33.041Z,3.63
2017-08-19T09:56:01.289Z,3.67
2017-08-19T09:58:30.306Z,3.43
2017-08-19T10:00:58.601Z,4.47
2017-08-19T10:03:27.505Z,3.53
2017-08-19T10:05:55.751Z,5.10
2017-08-19T10:08:35.890Z,3.67
2017-08-19T10:11:16.017Z,3.80
2017-08-19T10:13:44.305Z,3.60
2017-08-19T10:16:12.710Z,3.60
2017-08-19T10:18:41.031Z,3.57
2017-08-19T10:21:09.334Z,4.07
2017-08-19T10:23:38.166Z,3.57
2017-08-19T10:26:07.309Z,3.53
2017-08-19T10:28:35.550Z,3.20
2017-08-19T10:31:03.876Z,4.70
2017-08-19T10:33:33.003Z,4.07
2017-08-19T10:36:02.074Z,3.57
2017-08-19T10:38:30.334Z,5.83
2017-08-19T10:40:58.624Z,3.80
2017-08-19T10:43:27.049Z,3.70
2017-08-19T10:45:55.282Z,3.07
2017-08-19T10:48:23.612Z,3.53
2017-08-19T10:50:51.895Z,2.90
2017-08-19T10:53:20.170Z,3.27
2017-08-19T10:55:48.465Z,2.93
2017-08-19T10:58:16.981Z,3.07
2017-08-19T11:00:45.287Z,3.87
2017-08-19T11:03:13.579Z,2.50
2017-08-19T11:05:41.875Z,2.90
2017-08-19T11:08:10.240Z,3.90
2017-08-19T11:10:38.563Z,3.20
2017-08-19T11:13:06.862Z,3.43
2017-08-19T11:15:35.102Z,3.00
2017-08-19T11:18:04.206Z,4.50
2017-08-19T11:20:32.448Z,2.73
2017-08-19T11:23:00.761Z,4.10
2017-08-19T11:25:29.012Z,4.43
2017-08-19T11:27:57.291Z,3.20
2017-08-19T11:30:25.525Z,3.57
2017-08-19T11:32:54.719Z,4.90
2017-08-19T11:35:22.966Z,3.20
2017-08-19T11:37:51.295Z,3.90
2017-08-19T11:40:19.725Z,3.60
2017-08-19T11:42:48.093Z,3.67
2017-08-19T11:45:16.340Z,4.40
2017-08-19T11:47:44.635Z,4.23
2017-08-19T11:50:12.999Z,3.90
2017-08-19T11:52:41.299Z,3.03
2017-08-19T11:55:09.622Z,3.10
2017-08-19T11:57:37.947Z,2.93
2017-08-19T12:00:06.212Z,2.70
2017-08-19T12:02:34.646Z,3.40
2017-08-19T12:05:02.928Z,2.37
2017-08-19T12:07:31.189Z,5.07
2017-08-19T12:09:59.426Z,3.20
2017-08-19T12:12:27.735Z,2.93
2017-08-19T12:14:55.993Z,4.50
2017-08-19T12:17:24.258Z,2.30
2017-08-19T12:19:53.120Z,2.53
2017-08-19T12:22:21.376Z,2.87
2017-08-19T12:24:49.650Z,2.50
2017-08-19T12:27:17.901Z,2.33
2017-08-19T12:29:46.186Z,1.77
2017-08-19T12:32:14.424Z,1.90
2017-08-19T12:34:42.781Z,2.50
2017-08-19T12:37:11.865Z,2.13
2017-08-19T12:39:40.081Z,3.50
2017-08-19T12:42:08.398Z,2.23
2017-08-19T12:44:36.650Z,2.00
2017-08-19T12:47:04.917Z,2.23
2017-08-19T12:49:33.188Z,2.30
2017-08-19T12:52:01.471Z,2.27
2017-08-19T12:54:29.886Z,1.97
2017-08-19T12:56:58.237Z,2.07
2017-08-19T12:59:26.635Z,2.40
2017-08-19T13:01:54.971Z,2.23
2017-08-19T13:04:24.057Z,2.33
2017-08-19T13:06:52.683Z,2.03
2017-08-19T13:09:21.768Z,2.10
2017-08-19T13:11:50.060Z,1.93
2017-08-19T13:14:18.348Z,2.50
2017-08-19T13:16:46.616Z,2.57
2017-08-19T13:19:14.858Z,2.40
2017-08-19T13:21:43.153Z,1.80
2017-08-19T13:24:12.195Z,2.53
2017-08-19T13:26:40.546Z,2.03
2017-08-19T13:29:08.862Z,2.97
2017-08-19T13:31:37.166Z,1.87
2017-08-19T13:34:05.497Z,2.53
2017-08-19T13:36:33.824Z,1.63
2017-08-19T13:39:02.144Z,2.43
2017-08-19T13:41:30.491Z,1.70
2017-08-19T13:43:58.900Z,2.83
2017-08-19T13:46:27.175Z,1.93
2017-08-19T13:48:55.522Z,2.40
2017-08-19T13:51:23.873Z,2.80
2017-08-19T13:53:52.167Z,2.50
2017-08-19T13:56:20.438Z,2.43
2017-08-19T13:58:49.508Z,2.67
2017-08-19T14:01:17.842Z,2.17
2017-08-19T14:03:46.167Z,2.53
2017-08-19T14:06:14.481Z,2.20
2017-08-19T14:08:42.864Z,2.37
2017-08-19T14:11:11.380Z,1.60
2017-08-19T14:13:39.731Z,2.17
2017-08-19T14:16:08.792Z,1.87
2017-08-19T14:18:37.035Z,1.60
2017-08-19T14:21:05.300Z,2.00
2017-08-19T14:23:33.545Z,2.33
2017-08-19T14:26:02.649Z,2.33
2017-08-19T14:28:31.694Z,2.80
2017-08-19T14:30:59.966Z,2.00
2017-08-19T14:33:28.368Z,1.70
2017-08-19T14:35:56.827Z,2.50
2017-08-19T14:38:25.124Z,2.10
2017-08-19T14:40:53.447Z,2.63
2017-08-19T14:43:21.734Z,2.00
2017-08-19T14:45:50.092Z,2.20
2017-08-19T14:48:19.915Z,2.63
2017-08-19T14:50:48.217Z,3.03
2017-08-19T14:53:16.631Z,2.30
2017-08-19T14:55:44.975Z,2.40
2017-08-19T14:58:13.350Z,2.27
2017-08-19T15:00:42.376Z,2.77
2017-08-19T15:03:10.685Z,2.00
2017-08-19T15:05:38.945Z,2.17
2017-08-19T15:08:07.274Z,3.30
2017-08-19T15:10:35.616Z,4.00
2017-08-19T15:13:04.731Z,2.60
2017-08-19T15:15:33.144Z,2.73
2017-08-19T15:18:01.481Z,2.43
2017-08-19T15:20:29.743Z,2.50
2017-08-19T15:22:58.813Z,2.53
2017-08-19T15:25:27.139Z,3.80
2017-08-19T15:27:56.353Z,2.53
2017-08-19T15:30:24.625Z,2.63
2017-08-19T15:32:52.956Z,2.53
2017-08-19T15:35:21.300Z,2.00
2017-08-19T15:37:49.633Z,1.83
2017-08-19T15:40:18.695Z,2.00
2017-08-19T15:42:47.855Z,2.50
2017-08-19T15:45:16.217Z,2.57
2017-08-19T15:47:44.539Z,3.73
2017-08-19T15:50:12.854Z,2.87
2017-08-19T15:52:41.200Z,2.57
2017-08-19T15:55:09.514Z,2.53
2017-08-19T15:57:37.744Z,2.53
2017-08-19T16:00:06.034Z,2.10
2017-08-19T16:02:34.474Z,2.90
2017-08-19T16:05:03.122Z,2.33
2017-08-19T16:07:31.579Z,2.00
2017-08-19T16:09:59.848Z,2.37
2017-08-19T16:12:28.212Z,1.73
2017-08-19T16:14:57.226Z,2.63
2017-08-19T16:17:25.482Z,2.00
2017-08-19T16:19:54.523Z,2.53
2017-08-19T16:22:22.861Z,1.80
2017-08-19T16:24:51.903Z,2.57
2017-08-19T16:27:20.267Z,2.50
2017-08-19T16:29:51.755Z,2.30
2017-08-19T16:32:23.173Z,2.70
2017-08-19T16:34:52.488Z,2.53
2017-08-19T16:37:20.843Z,2.07
2017-08-19T16:39:49.582Z,2.27
2017-08-19T16:42:18.623Z,2.50
2017-08-19T16:44:47.003Z,2.60
2017-08-19T16:47:15.351Z,3.47
2017-08-19T16:49:44.408Z,2.57
2017-08-19T16:52:12.749Z,1.90
2017-08-19T16:54:41.115Z,2.03
2017-08-19T16:57:09.393Z,2.30
2017-08-19T16:59:38.357Z,2.33
2017-08-19T17:02:06.668Z,3.50
2017-08-19T17:04:34.933Z,2.43
2017-08-19T17:07:03.305Z,2.20
2017-08-19T17:09:31.672Z,1.90
2017-08-19T17:12:00.044Z,2.10
2017-08-19T17:14:28.337Z,1.80
2017-08-19T17:16:56.772Z,1.80
2017-08-19T17:19:25.103Z,2.50
2017-08-19T17:21:54.186Z,1.90
2017-08-19T17:24:23.253Z,2.20
2017-08-19T17:26:51.631Z,2.03
2017-08-19T17:29:19.877Z,2.00
2017-08-19T17:31:48.434Z,2.23
2017-08-19T17:34:17.011Z,2.20
2017-08-19T17:36:46.651Z,2.33
2017-08-19T17:39:18.501Z,2.20
2017-08-19T17:41:47.607Z,2.40
2017-08-19T17:44:26.224Z,1.93
2017-08-19T17:46:55.052Z,2.50
2017-08-19T17:49:24.308Z,2.47
2017-08-19T17:51:52.581Z,2.00
2017-08-19T17:54:20.937Z,3.10
2017-08-19T17:56:49.248Z,2.93
2017-08-19T17:59:18.453Z,2.83
2017-08-19T18:01:47.221Z,2.03
2017-08-19T18:04:15.523Z,2.67
2017-08-19T18:06:43.832Z,2.40
2017-08-19T18:09:12.103Z,2.53
2017-08-19T18:11:40.545Z,4.03
2017-08-19T18:14:08.806Z,2.80
2017-08-19T18:16:37.857Z,3.77
2017-08-19T18:19:06.113Z,3.10
2017-08-19T18:21:34.773Z,2.33
2017-08-19T18:24:03.285Z,2.47
2017-08-19T18:26:31.585Z,2.47
2017-08-19T18:29:00.450Z,2.67
2017-08-19T18:31:29.118Z,2.20
2017-08-19T18:33:57.425Z,2.80
2017-08-19T18:36:25.653Z,2.87
2017-08-19T18:38:54.787Z,3.10
2017-08-19T18:41:23.076Z,2.60
2017-08-19T18:43:51.340Z,2.80
2017-08-19T18:46:19.581Z,2.20
2017-08-19T18:48:48.644Z,1.93
2017-08-19T18:51:16.912Z,2.47
2017-08-19T18:53:45.283Z,2.47
2017-08-19T18:56:13.562Z,3.17
2017-08-19T18:58:42.411Z,2.37
2017-08-19T19:01:10.689Z,2.40
2017-08-19T19:03:38.943Z,2.90
2017-08-19T19:06:07.212Z,2.43
2017-08-19T19:08:35.495Z,2.30
2017-08-19T19:11:03.940Z,2.53
2017-08-19T19:13:32.209Z,2.90
2017-08-19T19:16:00.561Z,2.47
2017-08-19T19:18:29.669Z,2.33
2017-08-19T19:20:57.984Z,2.63
2017-08-19T19:23:26.293Z,2.57
2017-08-19T19:25:55.399Z,2.93
2017-08-19T19:28:25.468Z,2.57
2017-08-19T19:30:53.705Z,2.73
2017-08-19T19:33:22.781Z,2.07
2017-08-19T19:35:51.845Z,2.77
2017-08-19T19:38:20.116Z,3.00
2017-08-19T19:40:48.439Z,2.20
2017-08-19T19:43:16.702Z,43.23
2017-08-19T19:45:45.759Z,7.97
2017-08-19T19:48:13.990Z,2.70
2017-08-19T19:50:43.022Z,3.23
2017-08-19T19:53:11.368Z,2.73
2017-08-19T19:55:40.403Z,3.10
2017-08-19T19:58:08.677Z,2.20
2017-08-19T20:00:36.978Z,2.83
2017-08-19T20:03:06.177Z,3.17
2017-08-19T20:05:34.711Z,2.53
2017-08-19T20:08:03.113Z,2.37
2017-08-19T20:10:31.397Z,3.10
2017-08-19T20:12:59.673Z,2.80
2017-08-19T20:15:27.945Z,2.20
2017-08-19T20:17:56.195Z,2.90
2017-08-19T20:20:24.519Z,1.97
2017-08-19T20:22:53.654Z,2.87
2017-08-19T20:25:21.898Z,2.60
2017-08-19T20:27:50.231Z,2.83
2017-08-19T20:30:18.661Z,3.77
2017-08-19T20:32:46.992Z,3.00
2017-08-19T20:35:15.244Z,2.80
2017-08-19T20:37:43.524Z,2.43
2017-08-19T20:40:11.761Z,3.60
2017-08-19T20:42:40.057Z,3.57
2017-08-19T20:45:08.334Z,3.20
2017-08-19T20:47:36.591Z,3.70
2017-08-19T20:50:04.997Z,4.27
2017-08-19T20:52:33.284Z,3.30
2017-08-19T20:55:02.433Z,3.30
2017-08-19T20:57:30.642Z,4.60
2017-08-19T20:59:58.905Z,4.40
2017-08-19T21:02:27.186Z,4.80
2017-08-19T21:04:55.455Z,4.57
2017-08-19T21:07:23.816Z,4.43
2017-08-19T21:09:52.075Z,3.90
2017-08-19T21:12:21.109Z,3.93
2017-08-19T21:14:49.377Z,4.37
2017-08-19T21:17:17.656Z,4.20
2017-08-19T21:19:45.892Z,4.83
2017-08-19T21:22:14.197Z,4.90
2017-08-19T21:24:42.434Z,5.30
2017-08-19T21:27:11.612Z,4.87
2017-08-19T21:29:39.941Z,5.97
2017-08-19T21:32:08.161Z,5.47
2017-08-19T21:34:37.180Z,5.30
2017-08-19T21:37:06.341Z,5.43
2017-08-19T21:39:34.656Z,6.17
2017-08-19T21:42:02.987Z,6.13
2017-08-19T21:44:31.208Z,5.83
2017-08-19T21:47:00.274Z,6.30
2017-08-19T21:49:28.503Z,5.93
2017-08-19T21:51:56.751Z,5.60
2017-08-19T21:54:25.024Z,6.37
2017-08-19T21:56:53.272Z,6.27
2017-08-19T21:59:21.555Z,6.00
2017-08-19T22:01:49.791Z,6.03
2017-08-19T22:04:18.068Z,7.40
2017-08-19T22:06:46.350Z,8.43
2017-08-19T22:09:14.599Z,6.73
2017-08-19T22:11:43.633Z,6.80
2017-08-19T22:14:11.910Z,8.20
2017-08-19T22:16:40.196Z,9.10
2017-08-19T22:19:08.475Z,8.10
2017-08-19T22:21:36.706Z,7.60
2017-08-19T22:24:04.995Z,7.20
2017-08-19T22:26:33.266Z,8.60
2017-08-19T22:29:02.291Z,7.77
2017-08-19T22:31:30.610Z,8.50
2017-08-19T22:33:58.873Z,9.30
2017-08-19T22:36:27.107Z,7.57
2017-08-19T22:38:55.351Z,8.80
2017-08-19T22:41:23.625Z,8.57
2017-08-19T22:43:51.896Z,9.30
2017-08-19T22:46:20.776Z,9.03
2017-08-19T22:48:49.039Z,8.00
2017-08-19T22:51:17.310Z,9.70
2017-08-19T22:53:45.598Z,8.20
2017-08-19T22:56:13.838Z,8.90
2017-08-19T22:58:42.883Z,9.30
2017-08-19T23:01:11.163Z,9.30
2017-08-19T23:03:40.190Z,8.73
2017-08-19T23:06:19.312Z,8.47
2017-08-19T23:08:48.409Z,9.47
2017-08-19T23:11:16.655Z,8.57
2017-08-19T23:13:44.904Z,8.00
2017-08-19T23:16:13.150Z,8.30
2017-08-19T23:18:41.415Z,8.20
2017-08-19T23:21:09.664Z,8.63
2017-08-19T23:23:37.913Z,8.27
2017-08-19T23:26:06.415Z,7.93
2017-08-19T23:28:35.114Z,9.47
2017-08-19T23:31:03.419Z,9.40
2017-08-19T23:33:32.432Z,8.00
2017-08-19T23:36:00.690Z,9.33
2017-08-19T23:38:29.722Z,8.77
2017-08-19T23:40:57.990Z,8.97
2017-08-19T23:43:26.262Z,10.23
2017-08-19T23:45:54.536Z,12.63
2017-08-19T23:48:22.852Z,9.77
2017-08-19T23:50:51.101Z,13.00
2017-08-19T23:53:19.494Z,9.10
2017-08-19T23:55:47.722Z,9.20
2017-08-19T23:58:16.731Z,8.60
